Time;durP1;ratioP1;P1;durP2;ratioP2;P2;SDS_P1;SDS_P2;PMS_P1;PMS_P2;Temp;Humidity;BMP_temperature;BMP_pressure;BME280_temperature;BME280_humidity;BME280_pressure;Samples;Min_cycle;Max_cycle;Signal;HPM_P1;HPM_P2
2021/01/04 00:00:47;;;;;;;;;;;;;;;3.82;63.79;100993.88;5073287;28;20062;-67
2021/01/04 00:03:15;;;;;;;31.98;15.23;;;;;;;3.71;63.62;100996.88;5073219;28;19920;-68
2021/01/04 00:06:14;;;;;;;24.05;12.27;;;;;;;3.71;64.30;100991.56;5073321;28;20036;-67
2021/01/04 00:09:00;;;;;;;21.17;12.13;;;;;;;3.69;64.23;100984.63;5073187;28;20522;-64
2021/01/04 00:11:25;;;;;;;22.33;12.60;;;;;;;3.64;64.16;100979.47;5072935;28;20384;-66
2021/01/04 00:14:12;;;;;;;21.45;12.20;;;;;;;3.68;64.58;100988.19;5072925;28;20040;-66
2021/01/04 00:17:01;;;;;;;21.10;11.88;;;;;;;3.70;64.08;100994.28;5072771;28;20040;-66
2021/01/04 00:19:49;;;;;;;22.95;12.52;;;;;;;3.81;64.48;100986.00;5072447;28;20040;-66
2021/01/04 00:22:17;;;;;;;21.85;12.55;;;;;;;3.78;63.94;100984.28;5073336;28;20051;-60
2021/01/04 00:24:50;;;;;;;21.35;11.85;;;;;;;3.70;63.74;100983.69;5066517;28;20089;-57
2021/01/04 00:27:29;;;;;;;21.15;12.32;;;;;;;3.67;64.27;100981.16;5068549;28;20502;-61
2021/01/04 00:29:59;;;;;;;23.73;12.73;;;;;;;3.72;64.29;100987.16;5071236;28;20047;-66
2021/01/04 00:32:33;;;;;;;22.17;13.02;;;;;;;3.70;64.19;100981.91;5072197;28;20060;-59
2021/01/04 00:35:05;;;;;;;23.13;13.13;;;;;;;3.54;64.30;100949.78;5052535;28;20037;-67
2021/01/04 00:37:36;;;;;;;25.70;13.98;;;;;;;3.69;64.95;100972.22;5052642;28;20086;-65
2021/01/04 00:40:23;;;;;;;24.23;13.77;;;;;;;3.72;65.35;100977.41;5052872;28;20116;-64
2021/01/04 00:42:50;;;;;;;24.27;13.57;;;;;;;3.71;64.79;100969.53;5071443;28;20442;-65
2021/01/04 00:45:15;;;;;;;25.05;15.00;;;;;;;3.72;64.90;100974.75;5071956;28;20071;-66
2021/01/04 00:47:55;;;;;;;26.90;14.57;;;;;;;3.66;65.17;100974.13;5072555;28;20496;-65
2021/01/04 00:50:46;;;;;;;32.33;14.98;;;;;;;3.80;65.44;100974.50;5071450;28;20162;-65
2021/01/04 00:53:20;;;;;;;27.10;15.23;;;;;;;3.81;64.90;100975.41;5072303;28;20043;-66
2021/01/04 00:56:20;;;;;;;26.38;14.65;;;;;;;3.82;65.57;100966.53;5072798;28;20159;-66
2021/01/04 00:59:11;;;;;;;22.17;12.30;;;;;;;3.83;64.38;100957.66;5072342;28;20115;-67
2021/01/04 01:01:58;;;;;;;26.52;14.23;;;;;;;3.79;64.70;100948.94;5090406;28;20507;-64
2021/01/04 01:04:56;;;;;;;24.02;12.48;;;;;;;3.84;65.01;100949.63;5053711;28;20097;-64
2021/01/04 01:07:44;;;;;;;25.17;13.15;;;;;;;3.83;65.09;100952.38;5016489;28;20047;-64
2021/01/04 01:10:13;;;;;;;22.83;12.60;;;;;;;3.61;64.36;100920.44;5071477;28;20393;-65
2021/01/04 01:12:53;;;;;;;27.30;14.82;;;;;;;3.79;64.44;100954.25;5071512;28;20087;-67
2021/01/04 01:15:27;;;;;;;25.58;14.07;;;;;;;3.58;64.43;100935.50;5072068;28;20078;-63
2021/01/04 01:18:30;;;;;;;23.95;13.68;;;;;;;3.71;64.68;100951.84;5072064;28;20166;-67
2021/01/04 01:20:58;;;;;;;27.50;14.35;;;;;;;3.50;64.36;100910.22;5071325;28;20028;-67
2021/01/04 01:23:25;;;;;;;25.25;14.05;;;;;;;3.60;64.77;100938.13;5071929;28;20033;-68
2021/01/04 01:26:12;;;;;;;25.75;13.40;;;;;;;3.62;64.98;100940.69;5071835;28;20485;-66
2021/01/04 01:29:15;;;;;;;26.20;14.40;;;;;;;3.61;64.83;100934.53;5071467;28;21125;-66
2021/01/04 01:31:53;;;;;;;25.95;14.82;;;;;;;3.59;64.88;100949.63;5071176;28;20035;-68
2021/01/04 01:34:29;;;;;;;26.80;14.52;;;;;;;3.56;64.73;100944.44;5071781;28;20037;-56
2021/01/04 01:37:34;;;;;;;29.40;14.35;;;;;;;3.54;65.47;100941.81;5071589;28;20502;-67
2021/01/04 01:40:28;;;;;;;52.53;24.27;;;;;;;3.52;64.41;100946.31;5035823;28;20483;-60
2021/01/04 01:43:04;;;;;;;26.45;15.02;;;;;;;3.44;64.38;100924.53;4983081;28;20087;-66
2021/01/04 01:45:46;;;;;;;25.88;14.25;;;;;;;3.53;64.68;100945.38;5071269;28;20412;-66
2021/01/04 01:48:54;;;;;;;26.80;14.50;;;;;;;3.48;65.19;100947.34;5071124;28;20043;-67
2021/01/04 01:51:23;;;;;;;25.52;14.27;;;;;;;3.41;64.81;100936.06;5059066;28;20044;-66
2021/01/04 01:54:14;;;;;;;27.95;14.40;;;;;;;3.34;65.41;100936.31;5070944;28;20118;-58
2021/01/04 01:57:06;;;;;;;27.73;14.38;;;;;;;3.27;64.93;100918.00;5070724;28;20047;-67
2021/01/04 01:59:52;;;;;;;27.05;14.52;;;;;;;3.39;65.01;100939.72;5070673;28;20373;-67
2021/01/04 02:02:35;;;;;;;25.42;13.38;;;;;;;3.26;65.02;100921.56;5071090;28;20060;-66
2021/01/04 02:05:09;;;;;;;24.70;13.02;;;;;;;3.41;64.42;100951.09;5054799;28;20411;-65
2021/01/04 02:07:57;;;;;;;25.73;13.55;;;;;;;3.42;64.63;100942.25;5070454;28;20428;-67
2021/01/04 02:10:30;;;;;;;22.75;12.68;;;;;;;3.40;64.53;100949.38;5051786;28;20041;-64
2021/01/04 02:13:23;;;;;;;25.65;14.50;;;;;;;3.25;64.96;100926.88;5070473;28;20039;-66
2021/01/04 02:16:03;;;;;;;24.25;13.23;;;;;;;3.20;65.17;100918.25;5058682;28;20399;-58
2021/01/04 02:18:55;;;;;;;24.42;13.13;;;;;;;3.35;65.03;100952.16;5070897;28;20443;-66
2021/01/04 02:21:48;;;;;;;24.17;13.25;;;;;;;3.36;64.95;100947.72;5066048;28;20044;-66
2021/01/04 02:24:31;;;;;;;25.10;13.20;;;;;;;3.38;65.03;100956.50;5071058;28;20032;-66
2021/01/04 02:27:19;;;;;;;25.63;13.73;;;;;;;3.40;64.88;100952.88;5070409;28;20458;-68
2021/01/04 02:29:45;;;;;;;26.20;13.77;;;;;;;3.37;63.90;100946.81;5070643;28;20032;-67
2021/01/04 02:32:10;;;;;;;24.85;12.60;;;;;;;3.18;64.87;100918.31;5070580;28;20094;-64
2021/01/04 02:34:43;;;;;;;23.42;13.35;;;;;;;3.00;64.82;100888.88;5070265;28;20135;-68
2021/01/04 02:37:12;;;;;;;22.42;12.27;;;;;;;3.40;64.22;100928.19;5069766;28;20032;-68
2021/01/04 02:39:44;;;;;;;24.13;13.40;;;;;;;3.28;64.39;100938.25;5069627;28;20062;-65
2021/01/04 02:42:36;;;;;;;25.42;13.73;;;;;;;3.27;64.96;100933.88;5052539;28;20399;-67
2021/01/04 02:45:26;;;;;;;21.77;11.90;;;;;;;3.20;64.83;100936.75;5069877;28;20459;-66
2021/01/04 02:48:17;;;;;;;22.00;12.68;;;;;;;3.28;64.78;100938.25;5069792;28;20105;-68
2021/01/04 02:51:13;;;;;;;23.63;13.38;;;;;;;3.12;64.89;100910.53;5070217;28;20063;-68
2021/01/04 02:54:08;;;;;;;24.65;12.90;;;;;;;3.40;64.80;100933.50;5069705;28;20028;-68
2021/01/04 02:57:02;;;;;;;27.23;14.55;;;;;;;3.39;64.80;100932.59;5032989;28;20408;-67
2021/01/04 02:59:37;;;;;;;27.95;15.18;;;;;;;3.39;64.41;100937.06;5051374;28;20074;-67
2021/01/04 03:02:16;;;;;;;26.00;14.55;;;;;;;3.38;64.36;100930.88;5069697;28;20041;-67
2021/01/04 03:04:42;;;;;;;28.45;14.23;;;;;;;3.38;64.17;100914.16;5069388;28;20372;-64
2021/01/04 03:07:18;;;;;;;25.98;12.15;;;;;;;3.42;64.04;100927.22;5069337;28;20040;-66
2021/01/04 03:09:46;;;;;;;22.85;13.18;;;;;;;3.14;64.31;100898.16;5069554;28;20420;-67
2021/01/04 03:12:16;;;;;;;28.35;14.57;;;;;;;3.21;64.82;100926.16;5052247;28;20083;-68
2021/01/04 03:15:02;;;;;;;25.25;13.52;;;;;;;3.21;64.87;100918.19;5069481;28;20407;-66
2021/01/04 03:17:51;;;;;;;26.85;13.85;;;;;;;3.21;64.82;100909.38;5069769;28;20043;-67
2021/01/04 03:20:18;;;;;;;23.88;13.18;;;;;;;3.17;64.66;100913.94;5070087;28;20093;-68
2021/01/04 03:22:46;;;;;;;28.85;14.43;;;;;;;2.94;64.98;100867.91;5070276;28;20039;-67
2021/01/04 03:25:50;;;;;;;27.60;15.23;;;;;;;3.12;65.20;100881.44;5069341;28;20159;-68
2021/01/04 03:28:23;;;;;;;29.10;15.77;;;;;;;3.32;64.99;100914.31;5069499;28;20388;-66
2021/01/04 03:30:48;;;;;;;31.10;16.85;;;;;;;3.27;64.73;100925.09;5070238;28;20033;-69
2021/01/04 03:33:15;;;;;;;34.97;16.80;;;;;;;3.12;65.09;100899.97;5069487;28;20104;-69
2021/01/04 03:35:41;;;;;;;34.15;17.98;;;;;;;3.30;64.89;100939.06;5069584;28;20139;-68
2021/01/04 03:38:06;;;;;;;35.28;17.85;;;;;;;2.64;64.86;100814.19;5069576;28;20539;-65
2021/01/04 03:40:32;;;;;;;34.15;17.55;;;;;;;3.25;65.23;100926.88;5069665;28;20119;-69
2021/01/04 03:42:57;;;;;;;34.50;17.55;;;;;;;3.14;65.57;100937.84;5069182;28;20108;-67
2021/01/04 03:45:23;;;;;;;34.58;17.20;;;;;;;3.08;65.60;100936.25;5050858;28;20119;-68
2021/01/04 03:47:48;;;;;;;32.50;17.05;;;;;;;3.04;65.40;100925.81;5069081;28;20047;-68
2021/01/04 03:50:15;;;;;;;36.10;17.48;;;;;;;2.93;65.36;100908.50;5069107;28;20050;-71
2021/01/04 03:52:42;;;;;;;31.10;15.45;;;;;;;3.02;65.76;100944.41;5069061;28;20059;-69
2021/01/04 03:55:08;;;;;;;31.45;16.08;;;;;;;2.89;65.35;100916.56;5068483;28;20051;-69
2021/01/04 03:57:33;;;;;;;33.17;16.52;;;;;;;2.98;65.59;100943.63;5068963;28;20432;-67
2021/01/04 03:59:58;;;;;;;29.15;14.35;;;;;;;2.95;65.97;100956.94;5069105;28;20024;-67
2021/01/04 04:02:24;;;;;;;30.08;14.93;;;;;;;2.85;65.80;100937.84;5068698;28;20155;-67
2021/01/04 04:04:49;;;;;;;29.80;15.50;;;;;;;2.96;65.86;100940.16;5069050;28;20072;-61
2021/01/04 04:07:15;;;;;;;27.27;14.45;;;;;;;2.94;66.02;100939.34;5069257;28;20086;-73
2021/01/04 04:09:40;;;;;;;30.05;15.00;;;;;;;2.95;65.31;100956.94;5068846;28;20060;-67
2021/01/04 04:12:06;;;;;;;29.90;14.93;;;;;;;2.95;65.83;100938.41;5061057;28;20036;-69
2021/01/04 04:14:31;;;;;;;28.15;15.05;;;;;;;2.91;66.12;100957.06;5066887;28;20060;-67
2021/01/04 04:16:57;;;;;;;28.52;14.98;;;;;;;2.92;65.78;100938.50;5066340;28;20045;-66
2021/01/04 04:19:22;;;;;;;28.58;15.02;;;;;;;2.94;65.49;100941.97;5069225;28;20029;-67
2021/01/04 04:21:52;;;;;;;29.05;15.98;;;;;;;2.93;65.62;100939.38;5069521;28;20039;-69
2021/01/04 04:24:18;;;;;;;29.00;15.30;;;;;;;2.38;65.60;100856.38;5050993;28;20039;-67
2021/01/04 04:26:44;;;;;;;26.08;14.77;;;;;;;2.86;65.68;100936.91;5068378;28;20029;-68
2021/01/04 04:29:09;;;;;;;25.67;14.95;;;;;;;2.89;66.13;100959.75;5069249;28;20036;-67
2021/01/04 04:31:41;;;;;;;27.13;15.13;;;;;;;2.88;65.47;100947.44;5068793;28;20028;-67
2021/01/04 04:34:07;;;;;;;27.80;15.27;;;;;;;2.90;65.32;100931.53;5071391;28;20064;-66
2021/01/04 04:36:32;;;;;;;29.42;15.50;;;;;;;2.80;65.59;100925.66;5072319;28;20139;-66
2021/01/04 04:38:57;;;;;;;30.70;16.02;;;;;;;2.98;65.39;100945.38;5072165;28;20079;-68
2021/01/04 04:41:30;;;;;;;29.42;16.25;;;;;;;2.99;65.92;100960.34;5071949;28;20032;-67
2021/01/04 04:44:22;;;;;;;29.20;15.40;;;;;;;2.91;65.27;100931.50;5072158;28;20119;-65
2021/01/04 04:47:09;;;;;;;28.88;15.77;;;;;;;2.94;65.41;100936.69;5021840;28;20048;-67
2021/01/04 04:49:56;;;;;;;29.77;16.20;;;;;;;3.06;65.87;100939.84;5072952;28;20124;-66
2021/01/04 04:52:49;;;;;;;31.17;15.50;;;;;;;3.03;65.48;100940.84;5072874;28;20525;-61
2021/01/04 04:55:34;;;;;;;30.48;16.33;;;;;;;3.04;65.00;100937.28;5072544;28;20037;-67
2021/01/04 04:58:21;;;;;;;36.28;17.55;;;;;;;3.08;65.61;100928.31;5072263;28;20045;-66
2021/01/04 05:00:57;;;;;;;30.17;16.73;;;;;;;2.99;64.78;100908.31;5071649;28;20040;-66
2021/01/04 05:03:49;;;;;;;35.83;17.27;;;;;;;3.05;64.95;100904.59;5071257;28;20080;-66
2021/01/04 05:06:30;;;;;;;34.13;17.27;;;;;;;3.10;65.79;100931.78;5067550;28;20036;-67
2021/01/04 05:09:01;;;;;;;32.78;17.30;;;;;;;3.05;65.74;100922.25;5082872;28;20072;-60
2021/01/04 05:11:34;;;;;;;31.35;16.17;;;;;;;3.00;65.27;100923.25;5079852;28;20037;-68
2021/01/04 05:14:03;;;;;;;31.88;16.38;;;;;;;2.88;65.15;100905.13;5072472;28;20131;-68
2021/01/04 05:16:40;;;;;;;30.40;16.08;;;;;;;2.94;65.81;100904.94;5072391;28;20067;-67
2021/01/04 05:19:14;;;;;;;29.40;15.20;;;;;;;2.96;65.18;100896.94;5071972;28;20149;-68
2021/01/04 05:22:01;;;;;;;29.63;15.15;;;;;;;2.93;65.68;100897.03;5071182;28;20058;-66
2021/01/04 05:24:47;;;;;;;33.25;15.63;;;;;;;2.98;65.68;100900.41;5071429;28;20039;-69
2021/01/04 05:27:45;;;;;;;25.25;13.55;;;;;;;2.97;65.35;100903.97;5071868;28;20849;-68
2021/01/04 05:31:09;;;;;;;28.60;14.68;;;;;;;2.95;65.38;100904.03;5060452;28;20051;-68
2021/01/04 05:33:37;;;;;;;29.40;15.50;;;;;;;2.95;64.73;100900.50;4935091;28;20049;-69
2021/01/04 05:36:23;;;;;;;31.60;15.57;;;;;;;2.95;65.19;100919.91;5068309;28;20190;-68
2021/01/04 05:39:20;;;;;;;28.85;16.10;;;;;;;2.91;65.34;100912.09;5071462;28;20032;-69
2021/01/04 05:41:57;;;;;;;31.65;16.42;;;;;;;2.93;64.97;100918.19;5071032;28;20511;-67
2021/01/04 05:44:39;;;;;;;30.05;15.30;;;;;;;2.92;64.78;100929.69;5071115;28;20086;-58
2021/01/04 05:47:25;;;;;;;32.72;16.88;;;;;;;2.98;65.22;100948.91;5070601;28;20082;-66
2021/01/04 05:50:00;;;;;;;32.13;16.42;;;;;;;2.98;64.93;100935.69;5071212;28;20032;-68
2021/01/04 05:52:26;;;;;;;33.77;16.60;;;;;;;2.94;64.75;100935.81;5070701;28;20037;-68
2021/01/04 05:54:52;;;;;;;35.15;17.75;;;;;;;2.97;64.76;100941.00;5071364;28;20043;-64
2021/01/04 05:57:17;;;;;;;36.53;18.02;;;;;;;2.91;64.66;100955.31;5071023;28;20059;-67
2021/01/04 05:59:51;;;;;;;36.67;17.77;;;;;;;2.85;64.52;100940.47;5071123;28;20067;-67
2021/01/04 06:02:27;;;;;;;37.00;18.02;;;;;;;2.68;64.94;100941.00;5071135;28;20072;-66
2021/01/04 06:05:14;;;;;;;39.13;20.00;;;;;;;2.57;65.02;100948.34;5071194;28;20040;-58
2021/01/04 06:07:44;;;;;;;38.13;20.27;;;;;;;2.60;65.10;100977.34;5070696;28;20055;-66
2021/01/04 06:10:28;;;;;;;40.42;20.08;;;;;;;2.54;65.21;100951.09;5052615;28;20024;-67
2021/01/04 06:12:53;;;;;;;39.15;20.45;;;;;;;2.64;64.80;100964.91;5070584;28;20119;-58
2021/01/04 06:15:37;;;;;;;41.00;19.40;;;;;;;2.67;64.91;100965.72;5070889;28;20115;-67
2021/01/04 06:18:08;;;;;;;40.55;20.83;;;;;;;2.64;64.70;100965.75;5070124;28;20036;-65
2021/01/04 06:20:57;;;;;;;42.72;21.42;;;;;;;2.72;64.80;100969.06;5070001;28;20032;-65
2021/01/04 06:23:30;;;;;;;40.65;19.23;;;;;;;2.62;64.67;100948.22;5070580;28;20472;-67
2021/01/04 06:26:12;;;;;;;40.38;20.63;;;;;;;2.15;64.78;100884.34;5051971;28;20118;-66
2021/01/04 06:28:56;;;;;;;39.85;20.50;;;;;;;2.63;64.02;100979.91;5051657;28;20069;-61
2021/01/04 06:31:43;;;;;;;38.15;18.35;;;;;;;2.66;64.53;100966.63;5070610;28;20041;-64
2021/01/04 06:34:22;;;;;;;40.80;18.90;;;;;;;2.64;64.16;100963.13;5052715;28;20119;-64
2021/01/04 06:36:53;;;;;;;39.50;20.48;;;;;;;2.55;64.26;100976.63;5070226;28;20078;-64
2021/01/04 06:39:25;;;;;;;36.63;19.38;;;;;;;2.49;64.01;100959.16;5070491;28;20036;-66
2021/01/04 06:41:52;;;;;;;36.58;20.23;;;;;;;2.48;64.18;100965.34;5070328;28;20465;-65
2021/01/04 06:44:28;;;;;;;39.25;20.08;;;;;;;2.49;64.02;100964.44;5069673;28;20032;-63
2021/01/04 06:47:18;;;;;;;32.35;17.70;;;;;;;2.54;63.66;100970.50;5068596;28;20072;-57
2021/01/04 06:50:08;;;;;;;32.13;16.95;;;;;;;2.61;63.95;100972.94;5069328;28;20460;-65
2021/01/04 06:53:08;;;;;;;38.60;19.52;;;;;;;2.54;63.21;100975.78;5070237;28;20028;-64
2021/01/04 06:55:49;;;;;;;31.80;17.83;;;;;;;2.56;63.44;100976.59;5053108;28;20044;-65
2021/01/04 06:58:20;;;;;;;36.90;19.38;;;;;;;2.57;63.18;100965.09;5069158;28;20410;-65
2021/01/04 07:01:14;;;;;;;32.05;18.58;;;;;;;2.58;62.95;100972.13;5069474;28;20032;-63
2021/01/04 07:04:05;;;;;;;35.17;18.83;;;;;;;2.60;63.20;100958.84;5069471;28;20052;-58
2021/01/04 07:06:55;;;;;;;34.03;18.75;;;;;;;2.67;63.50;100949.84;5050803;28;20503;-65
2021/01/04 07:09:58;;;;;;;34.55;17.80;;;;;;;2.73;62.82;100962.88;5069897;28;20036;-65
2021/01/04 07:12:46;;;;;;;34.53;18.73;;;;;;;2.67;62.76;100943.66;5070055;28;20035;-58
2021/01/04 07:15:26;;;;;;;36.53;19.83;;;;;;;2.79;62.85;100963.59;5069357;28;20471;-66
2021/01/04 07:18:03;;;;;;;36.35;19.67;;;;;;;2.76;62.23;100958.41;5069730;28;20127;-66
2021/01/04 07:21:03;;;;;;;36.30;20.20;;;;;;;2.71;62.65;100983.22;5069666;28;20097;-66
2021/01/04 07:23:50;;;;;;;37.33;20.77;;;;;;;2.69;62.72;100987.69;5069893;28;20085;-65
2021/01/04 07:26:22;;;;;;;41.10;20.60;;;;;;;2.72;62.31;100989.34;5069532;28;20522;-67
2021/01/04 07:29:20;;;;;;;40.40;22.27;;;;;;;2.71;62.43;100993.78;5069764;28;20464;-66
2021/01/04 07:32:01;;;;;;;39.78;21.40;;;;;;;2.70;62.55;100986.75;5051073;28;20036;-67
2021/01/04 07:34:37;;;;;;;36.28;19.63;;;;;;;2.72;62.45;100992.88;5069178;28;20039;-66
2021/01/04 07:37:23;;;;;;;41.40;22.67;;;;;;;2.73;62.40;100984.03;5069443;28;20040;-65
2021/01/04 07:40:13;;;;;;;39.08;19.77;;;;;;;2.76;62.02;100985.69;5069454;28;20071;-65
2021/01/04 07:43:11;;;;;;;37.80;20.25;;;;;;;2.80;62.00;100986.47;5017555;28;20040;-65
2021/01/04 07:45:51;;;;;;;38.78;20.63;;;;;;;2.67;62.19;100976.28;4998879;28;20454;-65
2021/01/04 07:49:01;;;;;;;37.78;19.63;;;;;;;2.70;62.31;100957.69;5069023;28;20094;-65
2021/01/04 07:51:55;;;;;;;37.80;18.08;;;;;;;2.34;61.50;100873.25;5048557;28;20036;-67
2021/01/04 07:54:42;;;;;;;37.72;19.92;;;;;;;2.68;62.15;100941.00;5051760;28;20041;-63
2021/01/04 07:57:32;;;;;;;41.88;21.50;;;;;;;2.68;62.09;100951.56;5069068;28;20432;-64
2021/01/04 08:00:40;;;;;;;39.35;21.27;;;;;;;2.71;62.43;100959.41;5068662;28;20033;-63
2021/01/04 08:03:30;;;;;;;39.28;21.33;;;;;;;2.78;62.25;100967.16;5069028;28;20072;-65
2021/01/04 08:06:29;;;;;;;43.63;22.00;;;;;;;2.82;62.03;100974.97;5069313;28;20120;-62
2021/01/04 08:09:08;;;;;;;42.25;22.35;;;;;;;2.86;61.79;100966.00;5072816;28;20044;-53
2021/01/04 08:12:06;;;;;;;42.80;22.60;;;;;;;2.43;61.71;100878.28;5073626;28;20118;-63
2021/01/04 08:15:02;;;;;;;46.40;22.77;;;;;;;2.97;62.11;100983.31;5072613;28;20036;-65
2021/01/04 08:17:44;;;;;;;46.70;24.65;;;;;;;2.94;62.14;101005.47;5072141;28;20032;-66
2021/01/04 08:20:11;;;;;;;43.72;23.45;;;;;;;2.86;61.16;100981.00;5073102;28;20048;-62
2021/01/04 08:22:57;;;;;;;46.25;24.52;;;;;;;2.85;62.04;100995.16;5072402;28;20063;-65
2021/01/04 08:25:34;;;;;;;48.40;24.80;;;;;;;2.90;62.08;100992.38;5072857;28;20040;-64
2021/01/04 08:28:08;;;;;;;50.13;24.23;;;;;;;2.87;62.00;100998.59;5072378;28;20502;-63
2021/01/04 08:30:40;;;;;;;48.97;25.00;;;;;;;2.83;61.88;100991.69;5054803;28;20126;-65
2021/01/04 08:33:27;;;;;;;43.63;23.85;;;;;;;2.85;62.22;100979.28;5072128;28;20040;-64
2021/01/04 08:35:53;;;;;;;47.22;23.92;;;;;;;2.86;61.88;100975.72;5072909;28;20127;-63
2021/01/04 08:38:28;;;;;;;45.42;23.45;;;;;;;2.87;62.29;100985.38;5072915;28;20037;-63
2021/01/04 08:41:05;;;;;;;46.28;25.30;;;;;;;2.91;61.86;100983.53;5072706;28;20036;-57
2021/01/04 08:43:46;;;;;;;47.22;25.30;;;;;;;2.99;61.73;100986.78;5071929;28;20036;-62
2021/01/04 08:46:23;;;;;;;47.15;23.60;;;;;;;3.03;61.81;100992.88;5072682;28;20033;-63
2021/01/04 08:48:52;;;;;;;42.33;22.70;;;;;;;3.00;60.79;100989.41;5072355;28;20153;-64
2021/01/04 08:51:36;;;;;;;39.70;22.20;;;;;;;2.97;61.03;100994.78;5072250;28;20098;-64
2021/01/04 08:54:10;;;;;;;40.55;20.65;;;;;;;2.99;60.59;100978.84;5071818;28;20039;-66
2021/01/04 08:56:41;;;;;;;40.22;20.20;;;;;;;2.90;60.77;100971.22;5054479;28;20628;-66
2021/01/04 08:59:16;;;;;;;39.33;20.65;;;;;;;2.84;61.24;100965.19;5072561;28;20555;-64
2021/01/04 09:01:53;;;;;;;46.55;21.90;;;;;;;2.69;61.16;100944.50;5071937;28;20377;-62
2021/01/04 09:04:36;;;;;;;40.65;20.38;;;;;;;2.78;61.01;100961.88;5071797;28;20473;-63
2021/01/04 09:07:04;;;;;;;41.22;21.80;;;;;;;2.78;60.93;100952.16;5072132;28;20050;-63
2021/01/04 09:09:34;;;;;;;43.92;21.63;;;;;;;2.75;60.81;100952.22;5072316;28;20040;-64
2021/01/04 09:12:06;;;;;;;44.40;22.20;;;;;;;2.78;61.37;100951.28;5071448;28;20185;-62
2021/01/04 09:14:54;;;;;;;43.53;22.10;;;;;;;2.82;61.18;100959.09;5071631;28;20064;-67
2021/01/04 09:17:29;;;;;;;43.58;22.73;;;;;;;2.80;61.25;100955.63;5071857;28;20380;-65
2021/01/04 09:20:21;;;;;;;;;;;;;;;3.01;60.52;100954.09;5053920;28;20043;-60
2021/01/04 09:22:48;;;;;;;47.72;22.40;;;;;;;2.93;60.61;100963.19;5040269;28;19955;-61
2021/01/04 09:25:43;;;;;;;43.20;20.55;;;;;;;2.87;60.43;100961.56;5053971;28;20318;-61
2021/01/04 09:28:09;;;;;;;43.92;21.10;;;;;;;2.76;60.86;100955.75;5062079;28;20044;-61
2021/01/04 09:30:35;;;;;;;44.30;22.05;;;;;;;2.72;60.99;100955.84;5071210;28;20589;-60
2021/01/04 09:33:12;;;;;;;41.88;20.42;;;;;;;2.67;60.62;100954.25;5070969;28;20028;-61
2021/01/04 09:35:38;;;;;;;44.88;22.38;;;;;;;2.49;60.68;100922.13;5071417;28;20032;-63
2021/01/04 09:38:07;;;;;;;45.25;22.42;;;;;;;2.58;61.08;100942.16;5071056;28;20033;-62
2021/01/04 09:40:34;;;;;;;44.42;21.65;;;;;;;2.57;60.95;100935.13;5053389;28;20520;-63
2021/01/04 09:43:06;;;;;;;48.95;23.50;;;;;;;2.71;60.73;100946.19;5071188;28;20111;-62
2021/01/04 09:45:32;;;;;;;47.17;23.90;;;;;;;2.72;60.75;100944.38;5082907;28;20047;-64
2021/01/04 09:48:02;;;;;;;49.15;23.58;;;;;;;2.77;60.59;100939.81;5074867;28;20513;-63
2021/01/04 09:50:31;;;;;;;45.75;23.52;;;;;;;2.73;60.39;100944.34;5087065;28;20047;-63
2021/01/04 09:53:48;;;;;;;51.33;23.60;;;;;;;2.78;60.65;100941.59;5059872;28;20028;-62
2021/01/04 09:56:14;;;;;;;;;;;;;;;2.89;60.51;100943.88;4972932;28;20035;-61
2021/01/04 09:58:40;;;;;;;;;;;;;;;2.93;60.14;100929.66;4984763;28;19960;-59
2021/01/04 10:01:17;;;;;;;46.92;22.15;;;;;;;2.80;59.97;100938.88;5023848;28;19924;-62
2021/01/04 10:03:58;;;;;;;46.67;23.58;;;;;;;2.76;60.41;100931.94;5076571;28;20056;-64
2021/01/04 10:06:27;;;;;;;52.60;23.58;;;;;;;2.26;60.28;100869.97;5087494;28;20048;-64
2021/01/04 10:08:53;;;;;;;49.47;22.95;;;;;;;2.60;60.51;100945.63;5077185;28;20050;-62
2021/01/04 10:11:21;;;;;;;53.15;24.10;;;;;;;1.99;60.80;100846.06;5079704;28;20032;-64
2021/01/04 10:13:50;;;;;;;47.90;23.25;;;;;;;2.06;60.69;100868.75;5066168;28;20031;-69
2021/01/04 10:16:23;;;;;;;48.55;23.23;;;;;;;2.46;61.03;100943.38;5073658;28;20028;-64
2021/01/04 10:19:01;;;;;;;53.15;24.27;;;;;;;2.52;61.16;100955.56;5084392;28;20056;-61
2021/01/04 10:21:35;;;;;;;54.25;24.08;;;;;;;2.48;60.87;100964.50;5081143;28;20046;-62
2021/01/04 10:24:08;;;;;;;53.28;25.35;;;;;;;2.26;61.17;100901.69;5074219;28;20029;-64
2021/01/04 10:26:43;;;;;;;55.33;25.52;;;;;;;2.62;60.73;100953.53;5057678;28;20488;-60
2021/01/04 10:29:13;;;;;;;53.75;26.20;;;;;;;2.64;60.94;100955.19;5046052;28;20040;-61
2021/01/04 10:31:39;;;;;;;51.33;24.25;;;;;;;2.14;60.92;100850.91;5082598;28;20032;-61
2021/01/04 10:34:15;;;;;;;57.70;25.15;;;;;;;2.63;60.92;100955.25;5073495;28;20036;-63
2021/01/04 10:37:10;;;;;;;52.38;25.17;;;;;;;2.50;61.08;100929.16;5042544;28;20028;-64
2021/01/04 10:39:38;;;;;;;54.03;25.60;;;;;;;2.03;60.92;100866.22;5012218;28;20045;-61
2021/01/04 10:42:20;;;;;;;53.20;24.48;;;;;;;2.47;61.87;100960.13;5084087;28;20052;-61
2021/01/04 10:44:48;;;;;;;52.47;24.05;;;;;;;2.27;61.62;100945.69;5061011;28;20031;-63
2021/01/04 10:47:26;;;;;;;53.55;25.67;;;;;;;2.39;61.33;100965.63;5069558;28;20063;-62
2021/01/04 10:49:52;;;;;;;53.90;25.60;;;;;;;2.31;61.83;100968.47;5057341;28;20074;-62
2021/01/04 10:52:23;;;;;;;49.72;25.25;;;;;;;2.32;62.36;100980.78;5068303;28;20097;-62
2021/01/04 10:54:49;;;;;;;58.33;27.05;;;;;;;2.39;61.93;100981.47;5075398;28;20526;-62
2021/01/04 10:57:36;;;;;;;52.60;26.10;;;;;;;2.13;62.25;100933.72;5079961;28;20139;-63
2021/01/04 11:00:05;;;;;;;53.60;24.67;;;;;;;2.41;62.45;100991.13;5051938;28;20036;-61
2021/01/04 11:02:52;;;;;;;46.35;23.35;;;;;;;2.07;62.82;100912.75;5069777;28;20052;-62
2021/01/04 11:05:32;;;;;;;42.63;21.48;;;;;;;2.47;61.99;100974.19;5069710;28;20063;-62
2021/01/04 11:08:09;;;;;;;42.13;21.50;;;;;;;2.43;62.33;100959.34;5069208;28;20492;-61
2021/01/04 11:10:34;;;;;;;42.05;21.70;;;;;;;2.36;62.24;100963.91;5070220;28;20452;-61
2021/01/04 11:13:00;;;;;;;46.63;21.55;;;;;;;2.40;62.03;100970.00;5069884;28;20032;-59
2021/01/04 11:15:31;;;;;;;44.80;22.05;;;;;;;2.31;62.95;100971.13;5070042;28;20119;-61
2021/01/04 11:18:06;;;;;;;49.10;24.33;;;;;;;2.29;62.99;100959.72;5051567;28;20040;-60
2021/01/04 11:20:32;;;;;;;48.53;23.20;;;;;;;2.18;63.13;100962.66;5070095;28;20042;-60
2021/01/04 11:23:14;;;;;;;49.72;23.15;;;;;;;2.18;63.48;100967.94;5069581;28;20427;-61
2021/01/04 11:25:44;;;;;;;50.45;23.40;;;;;;;2.06;63.24;100961.22;5069501;28;20033;-60
2021/01/04 11:28:10;;;;;;;45.30;22.83;;;;;;;2.06;63.33;100977.06;5069371;28;20079;-61
2021/01/04 11:30:35;;;;;;;44.55;23.63;;;;;;;2.06;63.90;100979.72;5069077;28;20063;-59
2021/01/04 11:33:02;;;;;;;43.22;21.85;;;;;;;2.15;63.31;100987.38;5068552;28;20098;-60
2021/01/04 11:35:29;;;;;;;48.55;23.80;;;;;;;2.02;63.41;100962.22;5069584;28;20029;-61
2021/01/04 11:37:58;;;;;;;51.60;26.45;;;;;;;1.95;63.58;100947.44;5069300;28;20481;-60
2021/01/04 11:40:25;;;;;;;52.63;25.15;;;;;;;1.54;63.34;100900.97;5069738;28;20471;-61
2021/01/04 11:42:50;;;;;;;54.60;25.25;;;;;;;1.98;63.93;100973.78;5075192;28;20041;-60
2021/01/04 11:45:19;;;;;;;49.92;24.02;;;;;;;2.03;63.50;100971.00;5075652;28;20028;-60
2021/01/04 11:47:45;;;;;;;50.03;25.45;;;;;;;1.46;63.54;100875.66;5075998;28;20445;-61
2021/01/04 11:50:13;;;;;;;54.58;24.67;;;;;;;2.07;63.34;100981.44;5055197;28;20488;-62
2021/01/04 11:52:39;;;;;;;53.17;25.63;;;;;;;1.93;63.75;100967.72;5075833;28;20059;-62
2021/01/04 11:55:08;;;;;;;50.72;24.55;;;;;;;2.13;63.40;101001.56;5075704;28;20036;-64
2021/01/04 11:57:33;;;;;;;52.97;24.77;;;;;;;2.18;63.46;100988.22;5075521;28;20043;-61
2021/01/04 11:59:59;;;;;;;49.67;24.73;;;;;;;2.06;63.27;100974.44;5075277;28;20032;-60
2021/01/04 12:02:24;;;;;;;51.17;25.42;;;;;;;2.08;63.05;100969.13;5059156;28;20162;-59
2021/01/04 12:04:50;;;;;;;48.53;23.00;;;;;;;2.17;62.54;100989.13;5057417;28;20098;-57
2021/01/04 12:07:17;;;;;;;44.65;23.52;;;;;;;2.07;62.98;100978.81;5073324;28;20531;-60